createdAt,value
2022-10-15T00:01:10.440Z,26.58
2022-10-15T00:03:39.006Z,26.67
2022-10-15T00:06:10.600Z,26.95
2022-10-15T00:08:39.605Z,27.45
2022-10-15T00:11:09.830Z,28.63
2022-10-15T00:13:38.448Z,28.13
2022-10-15T00:16:09.370Z,27.38
2022-10-15T00:18:37.899Z,28.15
2022-10-15T00:21:09.554Z,26.88
2022-10-15T00:23:38.942Z,28.30
2022-10-15T00:26:08.745Z,29.23
2022-10-15T00:28:36.966Z,28.73
2022-10-15T00:31:06.858Z,29.40
2022-10-15T00:33:35.870Z,30.45
2022-10-15T00:36:07.278Z,30.60
2022-10-15T00:38:37.322Z,31.15
2022-10-15T00:41:06.285Z,31.67
2022-10-15T00:43:43.390Z,30.83
2022-10-15T00:46:19.183Z,31.15
2022-10-15T00:48:51.132Z,32.40
2022-10-15T00:51:21.850Z,32.33
2022-10-15T00:53:52.001Z,32.90
2022-10-15T00:56:23.309Z,31.10
2022-10-15T00:58:53.439Z,32.80
2022-10-15T01:01:21.991Z,32.75
2022-10-15T01:03:50.400Z,31.95
2022-10-15T01:06:18.512Z,33.85
2022-10-15T01:08:47.536Z,35.15
2022-10-15T01:11:31.779Z,32.97
2022-10-15T01:14:21.102Z,33.72
2022-10-15T01:16:53.838Z,33.38
2022-10-15T01:19:35.114Z,33.47
2022-10-15T01:22:07.665Z,33.58
2022-10-15T01:24:54.733Z,34.97
2022-10-15T01:27:45.481Z,34.35
2022-10-15T01:30:21.173Z,33.60
2022-10-15T01:33:05.724Z,35.67
2022-10-15T01:35:43.196Z,34.47
2022-10-15T01:38:24.138Z,35.08
2022-10-15T01:40:57.517Z,35.80
2022-10-15T01:43:31.411Z,34.97
2022-10-15T01:46:25.431Z,35.08
2022-10-15T01:49:09.231Z,35.28
2022-10-15T01:51:39.865Z,36.97
2022-10-15T01:54:12.109Z,36.20
2022-10-15T01:56:41.692Z,36.47
2022-10-15T01:59:11.567Z,37.30
2022-10-15T02:04:21.945Z,37.50
2022-10-15T02:06:54.592Z,37.50
2022-10-15T02:09:31.747Z,36.42
2022-10-15T02:12:12.271Z,36.25
2022-10-15T02:14:48.974Z,38.50
2022-10-15T02:17:24.570Z,39.08
2022-10-15T02:22:36.287Z,38.70
2022-10-15T02:25:07.727Z,38.03
2022-10-15T02:27:36.970Z,40.35
2022-10-15T02:30:09.985Z,39.53
2022-10-15T02:32:41.993Z,40.13
2022-10-15T02:35:12.238Z,39.40
2022-10-15T02:37:48.869Z,41.50
2022-10-15T02:40:20.998Z,39.67
2022-10-15T02:42:50.784Z,40.03
2022-10-15T02:45:18.901Z,41.95
2022-10-15T02:47:48.609Z,41.20
2022-10-15T02:50:18.437Z,39.05
2022-10-15T02:52:46.543Z,42.20
2022-10-15T02:55:14.612Z,43.15
2022-10-15T02:57:43.061Z,43.00
2022-10-15T03:00:12.278Z,43.00
2022-10-15T03:02:41.767Z,41.20
2022-10-15T03:05:11.889Z,41.55
2022-10-15T03:07:39.993Z,42.35
2022-10-15T03:10:09.324Z,43.55
2022-10-15T03:12:37.406Z,44.05
2022-10-15T03:15:07.786Z,42.20
2022-10-15T03:17:37.012Z,41.75
2022-10-15T03:20:05.858Z,42.80
2022-10-15T03:22:38.946Z,41.15
2022-10-15T03:25:07.543Z,44.03
2022-10-15T03:27:35.669Z,41.97
2022-10-15T03:30:08.974Z,43.35
2022-10-15T03:32:37.000Z,43.28
2022-10-15T03:35:07.797Z,43.28
2022-10-15T03:37:37.998Z,43.67
2022-10-15T03:40:13.450Z,42.92
2022-10-15T03:42:43.701Z,43.33
2022-10-15T03:45:12.917Z,44.25
2022-10-15T03:47:40.981Z,44.50
2022-10-15T03:50:09.908Z,42.42
2022-10-15T03:52:39.614Z,44.47
2022-10-15T03:55:09.554Z,45.28
2022-10-15T03:57:38.031Z,44.97
2022-10-15T04:00:09.666Z,43.97
2022-10-15T04:02:40.456Z,44.85
2022-10-15T04:05:19.134Z,44.33
2022-10-15T04:07:54.315Z,42.70
2022-10-15T04:10:23.589Z,41.58
2022-10-15T04:12:51.878Z,42.58
2022-10-15T04:15:20.413Z,42.55
2022-10-15T04:17:55.734Z,41.38
2022-10-15T04:20:25.333Z,41.33
2022-10-15T04:22:54.774Z,40.80
2022-10-15T04:25:22.950Z,39.50
2022-10-15T04:27:51.117Z,40.05
2022-10-15T04:30:20.089Z,41.28
2022-10-15T04:32:55.078Z,41.42
2022-10-15T04:35:23.910Z,41.05
2022-10-15T04:38:03.620Z,40.42
2022-10-15T04:40:58.773Z,39.15
2022-10-15T04:43:30.369Z,38.47
2022-10-15T04:46:05.691Z,37.92
2022-10-15T04:48:37.681Z,39.22
2022-10-15T04:51:14.415Z,38.58
2022-10-15T04:54:02.813Z,37.47
2022-10-15T04:56:32.098Z,38.85
2022-10-15T04:59:00.759Z,37.50
2022-10-15T05:01:32.700Z,38.90
2022-10-15T05:04:07.358Z,38.70
2022-10-15T05:06:35.399Z,37.92
2022-10-15T05:09:17.762Z,36.80
2022-10-15T05:11:50.663Z,38.00
2022-10-15T05:14:18.910Z,37.17
2022-10-15T05:17:03.242Z,36.97
2022-10-15T05:19:36.323Z,38.53
2022-10-15T05:22:04.454Z,38.08
2022-10-15T05:24:35.450Z,37.78
2022-10-15T05:27:14.252Z,37.60
2022-10-15T05:29:43.518Z,38.20
2022-10-15T05:32:11.762Z,36.08
2022-10-15T05:34:41.425Z,35.63
2022-10-15T05:37:15.701Z,34.92
2022-10-15T05:39:45.473Z,37.10
2022-10-15T05:42:13.445Z,36.15
2022-10-15T05:44:48.225Z,35.55
2022-10-15T05:47:16.269Z,36.25
2022-10-15T05:49:44.374Z,35.70
2022-10-15T05:52:17.595Z,34.17
2022-10-15T05:55:09.238Z,34.63
2022-10-15T05:57:37.217Z,34.15
2022-10-15T06:00:07.277Z,34.40
2022-10-15T06:02:41.203Z,33.75
2022-10-15T06:05:09.569Z,34.28
2022-10-15T06:07:38.187Z,34.42
2022-10-15T06:10:08.439Z,33.95
2022-10-15T06:12:36.537Z,34.72
2022-10-15T06:15:04.772Z,34.97
2022-10-15T06:17:32.838Z,35.10
2022-10-15T06:20:00.854Z,35.10
2022-10-15T06:22:31.895Z,35.13
2022-10-15T06:24:59.949Z,33.75
2022-10-15T06:27:30.834Z,34.25
2022-10-15T06:29:58.839Z,34.92
2022-10-15T06:32:26.812Z,34.25
2022-10-15T06:34:54.857Z,35.30
2022-10-15T06:37:23.306Z,33.85
2022-10-15T06:39:52.160Z,35.40
2022-10-15T06:42:20.162Z,34.47
2022-10-15T06:44:50.534Z,34.42
2022-10-15T06:47:18.563Z,35.03
2022-10-15T06:49:48.559Z,34.72
2022-10-15T06:52:16.947Z,34.55
2022-10-15T06:54:45.062Z,34.20
2022-10-15T06:57:15.066Z,33.00
2022-10-15T06:59:43.050Z,32.70
2022-10-15T07:02:14.118Z,34.75
2022-10-15T07:04:42.158Z,33.95
2022-10-15T07:07:10.126Z,33.92
2022-10-15T07:09:38.140Z,34.17
2022-10-15T07:12:06.966Z,34.83
2022-10-15T07:14:38.761Z,34.00
2022-10-15T07:17:09.670Z,34.58
2022-10-15T07:19:39.143Z,33.95
2022-10-15T07:22:07.170Z,34.22
2022-10-15T07:24:35.291Z,35.78
2022-10-15T07:27:08.335Z,34.05
2022-10-15T07:29:46.596Z,33.90
2022-10-15T07:32:14.822Z,34.78
2022-10-15T07:34:44.226Z,34.40
2022-10-15T07:37:12.246Z,34.97
2022-10-15T07:39:41.054Z,34.17
2022-10-15T07:42:09.862Z,33.78
2022-10-15T07:44:37.894Z,34.55
2022-10-15T07:47:11.246Z,35.47
2022-10-15T07:49:39.253Z,36.00
2022-10-15T07:52:09.487Z,34.95
2022-10-15T07:54:37.915Z,34.53
2022-10-15T07:57:07.140Z,34.05
2022-10-15T07:59:35.495Z,34.25
2022-10-15T08:02:03.492Z,34.25
2022-10-15T08:04:31.714Z,33.63
2022-10-15T08:06:59.695Z,33.40
2022-10-15T08:09:29.093Z,34.90
2022-10-15T08:11:57.142Z,32.40
2022-10-15T08:14:25.166Z,32.05
2022-10-15T08:16:53.185Z,32.22
2022-10-15T08:19:21.194Z,32.40
2022-10-15T08:21:50.214Z,31.95
2022-10-15T08:24:18.729Z,31.50
2022-10-15T08:26:48.104Z,31.85
2022-10-15T08:29:16.202Z,32.88
2022-10-15T08:31:44.305Z,31.70
2022-10-15T08:34:12.266Z,31.17
2022-10-15T08:36:40.266Z,30.08
2022-10-15T08:39:09.277Z,31.63
2022-10-15T08:41:41.634Z,31.25
2022-10-15T08:44:19.315Z,39.88
2022-10-15T08:46:51.124Z,34.72
2022-10-15T08:49:31.709Z,31.73
2022-10-15T08:52:08.416Z,28.95
2022-10-15T08:54:37.135Z,30.33
2022-10-15T08:57:17.969Z,27.98
2022-10-15T08:59:55.762Z,29.15
2022-10-15T09:02:27.845Z,29.33
2022-10-15T09:05:02.867Z,30.25
2022-10-15T09:07:42.780Z,29.33
2022-10-15T09:10:17.225Z,28.60
2022-10-15T09:12:52.993Z,29.52
2022-10-15T09:15:27.069Z,26.23
2022-10-15T09:17:56.527Z,28.35
2022-10-15T09:20:31.755Z,27.30
2022-10-15T09:22:59.913Z,26.50
2022-10-15T09:25:34.481Z,26.88
2022-10-15T09:28:11.430Z,25.40
2022-10-15T09:30:45.410Z,24.75
2022-10-15T09:33:19.363Z,24.48
2022-10-15T09:35:52.326Z,24.92
2022-10-15T09:38:30.109Z,25.38
2022-10-15T09:41:16.551Z,24.48
2022-10-15T09:43:47.837Z,24.17
2022-10-15T09:46:17.234Z,24.60
2022-10-15T09:48:50.165Z,25.35
2022-10-15T09:51:25.859Z,23.70
2022-10-15T09:54:02.643Z,24.67
2022-10-15T09:56:36.502Z,24.25
2022-10-15T09:59:07.355Z,24.60
2022-10-15T10:01:39.289Z,25.98
2022-10-15T10:04:18.145Z,27.00
2022-10-15T10:06:49.234Z,26.48
2022-10-15T10:09:20.670Z,26.23
2022-10-15T10:11:51.423Z,29.30
2022-10-15T10:14:27.593Z,30.70
2022-10-15T10:17:17.285Z,30.67
2022-10-15T10:19:47.065Z,30.90
2022-10-15T10:22:19.624Z,32.15
2022-10-15T10:24:48.713Z,30.95
2022-10-15T10:27:24.419Z,31.80
2022-10-15T10:29:59.893Z,32.83
2022-10-15T10:32:32.464Z,32.67
2022-10-15T10:35:02.028Z,34.25
2022-10-15T10:37:30.653Z,33.20
2022-10-15T10:40:01.693Z,32.22
2022-10-15T10:42:35.410Z,30.20
2022-10-15T10:45:18.975Z,29.92
2022-10-15T10:47:48.570Z,26.98
2022-10-15T10:50:29.205Z,27.63
2022-10-15T10:53:00.044Z,25.77
2022-10-15T10:55:38.518Z,25.17
2022-10-15T10:58:06.689Z,26.05
2022-10-15T11:00:40.031Z,25.75
2022-10-15T11:03:21.942Z,26.10
2022-10-15T11:06:07.686Z,25.05
2022-10-15T11:08:46.038Z,25.90
2022-10-15T11:11:20.810Z,25.52
2022-10-15T11:14:02.723Z,23.02
2022-10-15T11:16:37.249Z,21.80
2022-10-15T11:19:47.111Z,22.23
2022-10-15T11:22:48.801Z,20.15
2022-10-15T11:25:24.773Z,21.95
2022-10-15T11:28:02.419Z,20.98
2022-10-15T11:30:43.591Z,19.85
2022-10-15T11:33:29.273Z,19.65
2022-10-15T11:36:11.753Z,19.50
2022-10-15T11:38:46.761Z,22.17
2022-10-15T11:41:35.238Z,20.77
2022-10-15T11:44:16.850Z,19.25
2022-10-15T11:46:52.094Z,19.05
2022-10-15T11:49:29.560Z,23.38
2022-10-15T11:52:14.712Z,18.80
2022-10-15T11:54:46.907Z,20.23
2022-10-15T11:57:18.034Z,17.45
2022-10-15T11:59:53.321Z,18.95
2022-10-15T12:02:30.267Z,17.10
2022-10-15T12:05:01.637Z,16.73
2022-10-15T12:07:38.422Z,14.05
2022-10-15T12:10:22.569Z,14.88
2022-10-15T12:12:57.821Z,15.13
2022-10-15T12:15:32.170Z,14.43
2022-10-15T12:18:05.670Z,14.93
2022-10-15T12:20:34.171Z,14.05
2022-10-15T12:23:04.310Z,13.82
2022-10-15T12:25:46.603Z,13.38
2022-10-15T12:28:18.161Z,13.02
2022-10-15T12:30:56.709Z,13.32
2022-10-15T12:33:30.693Z,13.05
2022-10-15T12:36:00.894Z,12.07
2022-10-15T12:38:34.545Z,11.75
2022-10-15T12:41:06.270Z,12.63
2022-10-15T12:43:36.932Z,12.45
2022-10-15T12:46:07.203Z,12.50
2022-10-15T12:48:43.313Z,11.98
2022-10-15T12:51:35.341Z,13.05
2022-10-15T12:54:49.919Z,11.57
2022-10-15T12:58:01.475Z,12.73
2022-10-15T13:00:38.691Z,11.75
2022-10-15T13:03:33.714Z,12.77
2022-10-15T13:06:26.893Z,11.55
2022-10-15T13:09:06.835Z,11.35
2022-10-15T13:11:38.252Z,10.82
2022-10-15T13:14:26.199Z,12.18
2022-10-15T13:16:57.729Z,11.35
2022-10-15T13:19:29.282Z,11.88
2022-10-15T13:22:00.862Z,12.55
2022-10-15T13:24:41.805Z,11.38
2022-10-15T13:27:23.933Z,12.93
2022-10-15T13:29:58.697Z,11.82
2022-10-15T13:32:28.674Z,13.07
2022-10-15T13:34:57.612Z,13.32
2022-10-15T13:37:32.404Z,13.98
2022-10-15T13:40:04.653Z,14.48
2022-10-15T13:42:35.855Z,15.38
2022-10-15T13:45:16.560Z,15.27
2022-10-15T13:47:49.173Z,15.48
2022-10-15T13:50:23.877Z,16.92
2022-10-15T13:52:56.626Z,17.00
2022-10-15T13:55:28.440Z,16.58
2022-10-15T13:58:01.489Z,17.35
2022-10-15T14:00:34.454Z,18.05
2022-10-15T14:03:10.506Z,18.90
2022-10-15T14:05:38.517Z,19.58
2022-10-15T14:08:07.058Z,19.40
2022-10-15T14:10:35.069Z,20.15
2022-10-15T14:13:03.094Z,20.63
2022-10-15T14:15:47.966Z,20.20
2022-10-15T14:18:19.330Z,20.85
2022-10-15T14:20:48.924Z,22.17
2022-10-15T14:23:21.610Z,21.95
2022-10-15T14:25:55.449Z,31.45
2022-10-15T14:28:25.273Z,25.48
2022-10-15T14:30:55.557Z,27.85
2022-10-15T14:33:45.346Z,24.95
2022-10-15T14:36:23.019Z,22.00
2022-10-15T14:38:52.257Z,22.35
2022-10-15T14:41:27.241Z,21.85
2022-10-15T14:44:03.677Z,23.02
2022-10-15T14:46:39.304Z,22.17
2022-10-15T14:49:28.077Z,22.50
2022-10-15T14:51:58.921Z,22.10
2022-10-15T14:54:33.038Z,22.88
2022-10-15T14:57:01.941Z,21.98
2022-10-15T14:59:34.395Z,22.33
2022-10-15T15:02:06.190Z,23.65
2022-10-15T15:04:42.613Z,23.20
2022-10-15T15:07:16.704Z,22.75
2022-10-15T15:09:47.806Z,22.77
2022-10-15T15:12:21.755Z,22.88
2022-10-15T15:14:52.697Z,24.02
2022-10-15T15:17:24.101Z,23.55
2022-10-15T15:19:54.581Z,22.80
2022-10-15T15:22:29.106Z,21.33
2022-10-15T15:24:59.036Z,22.35
2022-10-15T15:27:28.745Z,21.55
2022-10-15T15:29:57.597Z,21.38
2022-10-15T15:32:27.435Z,21.02
2022-10-15T15:34:57.119Z,21.33
2022-10-15T15:37:26.145Z,21.33
2022-10-15T15:39:54.175Z,21.05
2022-10-15T15:42:24.432Z,20.75
2022-10-15T15:44:52.651Z,19.98
2022-10-15T15:47:20.765Z,17.85
2022-10-15T15:49:50.090Z,18.13
2022-10-15T15:52:19.028Z,16.90
2022-10-15T15:54:47.470Z,17.08
2022-10-15T15:57:15.606Z,15.75
2022-10-15T15:59:43.650Z,15.50
2022-10-15T16:02:13.075Z,14.75
2022-10-15T16:04:41.052Z,14.43
2022-10-15T16:07:13.297Z,14.20
2022-10-15T16:09:41.778Z,13.90
2022-10-15T16:12:09.837Z,13.40
2022-10-15T16:14:37.893Z,14.05
2022-10-15T16:17:06.680Z,12.00
2022-10-15T16:19:34.826Z,11.20
2022-10-15T16:22:02.893Z,11.60
2022-10-15T16:24:32.317Z,11.65
2022-10-15T16:27:01.306Z,12.90
2022-10-15T16:29:29.277Z,12.23
2022-10-15T16:31:57.470Z,13.15
2022-10-15T16:34:26.011Z,12.23
2022-10-15T16:36:54.065Z,12.30
2022-10-15T16:39:22.021Z,11.82
2022-10-15T16:41:51.413Z,12.02
2022-10-15T16:44:19.396Z,11.60
2022-10-15T16:47:31.832Z,12.20
2022-10-15T16:51:02.497Z,11.05
2022-10-15T16:54:15.539Z,10.93
2022-10-15T16:56:57.160Z,9.90
2022-10-15T16:59:33.230Z,9.15
2022-10-15T17:02:40.233Z,9.10
2022-10-15T17:13:36.595Z,7.25
2022-10-15T17:24:46.327Z,7.90
2022-10-15T17:28:34.099Z,7.28
2022-10-15T17:31:24.638Z,7.43
2022-10-15T17:37:26.196Z,8.23
2022-10-15T17:39:58.164Z,6.97
2022-10-15T17:42:27.015Z,6.53
2022-10-15T17:44:55.656Z,6.90
2022-10-15T17:47:24.345Z,6.45
2022-10-15T17:49:54.197Z,6.75
2022-10-15T17:52:22.722Z,7.18
2022-10-15T17:54:51.715Z,6.65
2022-10-15T17:57:20.066Z,7.13
2022-10-15T17:59:51.088Z,7.40
2022-10-15T18:02:19.756Z,6.55
2022-10-15T18:04:49.613Z,7.70
2022-10-15T18:07:19.969Z,7.10
2022-10-15T18:09:48.317Z,7.30
2022-10-15T18:12:16.602Z,7.30
2022-10-15T18:14:44.920Z,7.20
2022-10-15T18:17:15.296Z,8.05
2022-10-15T18:19:43.703Z,7.82
2022-10-15T18:22:12.686Z,7.97
2022-10-15T18:24:42.429Z,7.68
2022-10-15T18:27:10.722Z,7.93
2022-10-15T18:29:39.931Z,7.78
2022-10-15T18:32:08.840Z,8.18
2022-10-15T18:34:37.114Z,7.63
2022-10-15T18:37:05.435Z,6.65
2022-10-15T18:39:33.910Z,7.47
2022-10-15T18:42:04.343Z,7.32
2022-10-15T18:44:34.282Z,6.93
2022-10-15T18:47:02.585Z,7.88
2022-10-15T18:49:32.580Z,7.25
2022-10-15T18:52:06.526Z,7.15
2022-10-15T18:54:44.272Z,6.88
2022-10-15T18:57:13.926Z,6.03
2022-10-15T18:59:42.298Z,6.68
2022-10-15T19:02:10.680Z,6.30
2022-10-15T19:04:39.017Z,5.70
2022-10-15T19:07:07.374Z,4.88
2022-10-15T19:09:36.000Z,5.72
2022-10-15T19:12:04.661Z,5.18
2022-10-15T19:14:34.298Z,4.90
2022-10-15T19:17:03.384Z,3.75
2022-10-15T19:19:31.737Z,4.10
2022-10-15T19:22:00.631Z,3.58
2022-10-15T19:24:29.044Z,4.00
2022-10-15T19:26:57.595Z,3.55
2022-10-15T19:29:25.927Z,3.63
2022-10-15T19:31:56.952Z,3.53
2022-10-15T19:34:25.301Z,3.42
2022-10-15T19:36:53.664Z,3.67
2022-10-15T19:39:24.668Z,3.72
2022-10-15T19:41:53.708Z,3.97
2022-10-15T19:44:25.771Z,4.30
2022-10-15T19:46:56.665Z,4.22
2022-10-15T19:49:25.767Z,4.32
2022-10-15T19:51:54.848Z,4.70
2022-10-15T19:56:51.574Z,5.30
2022-10-15T19:59:21.907Z,4.70
2022-10-15T20:01:50.287Z,5.15
2022-10-15T20:04:22.296Z,5.05
2022-10-15T20:06:52.846Z,5.22
2022-10-15T20:09:21.257Z,5.55
2022-10-15T20:11:49.625Z,5.03
2022-10-15T20:14:17.940Z,5.45
2022-10-15T20:16:46.128Z,5.47
2022-10-15T20:19:14.882Z,5.20
2022-10-15T20:21:44.605Z,4.90
2022-10-15T20:24:13.039Z,5.03
2022-10-15T20:26:41.369Z,5.05
2022-10-15T20:29:09.704Z,5.22
2022-10-15T20:31:38.095Z,4.80
2022-10-15T20:34:06.278Z,5.43
2022-10-15T20:36:34.641Z,4.47
2022-10-15T20:39:04.368Z,4.60
2022-10-15T20:41:32.723Z,4.72
2022-10-15T20:44:00.946Z,4.43
2022-10-15T20:46:34.110Z,4.65
2022-10-15T20:49:08.806Z,4.38
2022-10-15T20:51:38.818Z,4.22
2022-10-15T20:54:08.896Z,4.78
2022-10-15T20:56:37.450Z,5.10
2022-10-15T20:59:06.381Z,4.68
2022-10-15T21:01:35.785Z,4.63
2022-10-15T21:04:04.789Z,4.30
2022-10-15T21:06:33.879Z,4.18
2022-10-15T21:09:02.693Z,4.55
2022-10-15T21:11:32.401Z,4.20
2022-10-15T21:14:01.551Z,3.67
2022-10-15T21:16:29.878Z,3.70
2022-10-15T21:18:58.177Z,3.85
2022-10-15T21:21:26.796Z,3.95
2022-10-15T21:23:55.405Z,3.70
2022-10-15T21:26:24.859Z,3.58
2022-10-15T21:28:56.976Z,3.55
2022-10-15T21:31:26.174Z,3.80
2022-10-15T21:33:55.905Z,3.40
2022-10-15T21:36:27.169Z,3.22
2022-10-15T21:38:57.159Z,3.20
2022-10-15T21:41:26.803Z,3.50
2022-10-15T21:43:56.530Z,3.55
2022-10-15T21:46:25.288Z,3.50
2022-10-15T21:48:54.650Z,2.92
2022-10-15T21:51:25.001Z,3.53
2022-10-15T21:53:53.859Z,3.53
2022-10-15T21:56:22.494Z,4.20
2022-10-15T21:58:52.123Z,3.30
2022-10-15T22:01:24.014Z,3.35
2022-10-15T22:03:53.871Z,3.90
2022-10-15T22:06:22.609Z,3.05
2022-10-15T22:08:51.513Z,3.00
2022-10-15T22:11:22.488Z,3.08
2022-10-15T22:13:52.803Z,2.97
2022-10-15T22:16:24.251Z,3.20
2022-10-15T22:18:53.136Z,3.08
2022-10-15T22:21:23.804Z,2.80
2022-10-15T22:23:53.724Z,2.70
2022-10-15T22:26:24.730Z,2.72
2022-10-15T22:28:54.238Z,2.60
2022-10-15T22:31:24.647Z,2.78
2022-10-15T22:33:53.765Z,3.13
2022-10-15T22:36:24.019Z,2.80
2022-10-15T22:41:23.593Z,2.67
2022-10-15T22:43:51.867Z,2.70
2022-10-15T22:46:19.967Z,2.08
2022-10-15T22:48:50.007Z,2.20
2022-10-15T22:51:18.239Z,2.20
2022-10-15T22:53:46.699Z,2.35
2022-10-15T22:56:17.126Z,2.10
2022-10-15T22:58:45.759Z,2.03
2022-10-15T23:01:16.700Z,2.40
2022-10-15T23:03:46.260Z,2.33
2022-10-15T23:06:16.549Z,2.15
2022-10-15T23:08:47.159Z,2.28
2022-10-15T23:11:17.694Z,2.33
2022-10-15T23:13:47.256Z,2.13
2022-10-15T23:16:16.923Z,2.75
2022-10-15T23:18:47.021Z,2.17
2022-10-15T23:21:17.921Z,2.05
2022-10-15T23:23:46.985Z,1.80
2022-10-15T23:26:16.734Z,1.88
2022-10-15T23:28:45.499Z,2.28
2022-10-15T23:31:16.996Z,2.70
2022-10-15T23:33:45.166Z,2.10
2022-10-15T23:36:13.360Z,2.30
2022-10-15T23:38:42.933Z,2.00
2022-10-15T23:41:11.518Z,2.38
2022-10-15T23:43:39.634Z,2.30
2022-10-15T23:46:07.676Z,2.40
2022-10-15T23:48:36.246Z,2.33
2022-10-15T23:51:04.502Z,2.13
2022-10-15T23:53:33.606Z,2.40
2022-10-15T23:56:03.950Z,2.10
2022-10-15T23:58:33.101Z,2.20
